createdAt,value
2018-07-08T00:00:12.218Z,1018.32
2018-07-08T00:01:12.210Z,1018.30
2018-07-08T00:02:12.189Z,1018.29
2018-07-08T00:03:12.173Z,1018.27
2018-07-08T00:04:12.161Z,1018.25
2018-07-08T00:05:12.145Z,1018.22
2018-07-08T00:06:12.131Z,1018.21
2018-07-08T00:07:12.116Z,1018.21
2018-07-08T00:08:12.102Z,1018.24
2018-07-08T00:09:12.089Z,1018.21
2018-07-08T00:10:12.071Z,1018.19
2018-07-08T00:11:12.065Z,1018.22
2018-07-08T00:12:12.045Z,1018.19
2018-07-08T00:13:12.035Z,1018.17
2018-07-08T00:14:12.020Z,1018.15
2018-07-08T00:15:12.015Z,1018.19
2018-07-08T00:16:11.985Z,1018.17
2018-07-08T00:17:11.971Z,1018.12
2018-07-08T00:18:11.957Z,1018.10
2018-07-08T00:19:11.943Z,1018.12
2018-07-08T00:20:11.926Z,1018.08
2018-07-08T00:21:11.912Z,1018.07
2018-07-08T00:22:11.899Z,1018.08
2018-07-08T00:23:11.885Z,1018.06
2018-07-08T00:24:11.868Z,1018.10
2018-07-08T00:25:11.854Z,1018.08
2018-07-08T00:26:11.838Z,1018.11
2018-07-08T00:27:11.825Z,1018.11
2018-07-08T00:28:11.817Z,1018.09
2018-07-08T00:29:11.807Z,1018.11
2018-07-08T00:30:11.781Z,1018.12
2018-07-08T00:31:11.765Z,1018.15
2018-07-08T00:32:11.749Z,1018.11
2018-07-08T00:33:11.735Z,1018.15
2018-07-08T00:34:11.729Z,1018.16
2018-07-08T00:35:11.704Z,1018.15
2018-07-08T00:36:11.692Z,1018.16
2018-07-08T00:37:11.675Z,1018.13
2018-07-08T00:38:11.662Z,1018.12
2018-07-08T00:39:11.653Z,1018.13
2018-07-08T00:40:11.632Z,1018.12
2018-07-08T00:41:11.625Z,1018.07
2018-07-08T00:42:11.613Z,1018.10
2018-07-08T00:43:11.589Z,1018.11
2018-07-08T00:44:11.572Z,1018.09
2018-07-08T00:45:11.558Z,1018.12
2018-07-08T00:46:11.583Z,1018.08
2018-07-08T00:47:11.528Z,1018.09
2018-07-08T00:48:11.514Z,1018.13
2018-07-08T00:49:11.499Z,1018.09
2018-07-08T00:50:11.483Z,1018.10
2018-07-08T00:51:11.467Z,1018.11
2018-07-08T00:52:11.462Z,1018.11
2018-07-08T00:53:11.445Z,1018.18
2018-07-08T00:54:11.426Z,1018.16
2018-07-08T00:55:11.408Z,1018.15
2018-07-08T00:56:11.404Z,1018.16
2018-07-08T00:57:11.379Z,1018.17
2018-07-08T00:58:11.364Z,1018.16
2018-07-08T00:59:11.348Z,1018.18
2018-07-08T01:00:11.334Z,1018.19
2018-07-08T01:01:11.320Z,1018.20
2018-07-08T01:02:11.306Z,1018.22
2018-07-08T01:03:11.293Z,1018.22
2018-07-08T01:04:11.275Z,1018.19
2018-07-08T01:05:11.259Z,1018.21
2018-07-08T01:06:11.244Z,1018.22
2018-07-08T01:07:11.229Z,1018.22
2018-07-08T01:08:11.214Z,1018.28
2018-07-08T01:09:11.199Z,1018.27
2018-07-08T01:10:11.192Z,1018.29
2018-07-08T01:11:11.168Z,1018.25
2018-07-08T01:12:11.156Z,1018.32
2018-07-08T01:13:11.139Z,1018.27
2018-07-08T01:14:11.130Z,1018.29
2018-07-08T01:15:11.125Z,1018.30
2018-07-08T01:16:11.109Z,1018.25
2018-07-08T01:17:11.079Z,1018.32
2018-07-08T01:18:11.064Z,1018.31
2018-07-08T01:19:11.049Z,1018.34
2018-07-08T01:20:11.033Z,1018.32
2018-07-08T01:21:11.017Z,1018.31
2018-07-08T01:22:11.005Z,1018.34
2018-07-08T01:23:10.986Z,1018.38
2018-07-08T01:24:10.973Z,1018.35
2018-07-08T01:25:11.008Z,1018.34
2018-07-08T01:26:10.944Z,1018.36
2018-07-08T01:27:10.927Z,1018.39
2018-07-08T01:28:10.912Z,1018.41
2018-07-08T01:29:10.896Z,1018.39
2018-07-08T01:30:10.883Z,1018.42
2018-07-08T01:31:10.867Z,1018.41
2018-07-08T01:32:10.851Z,1018.41
2018-07-08T01:33:10.845Z,1018.41
2018-07-08T01:34:10.831Z,1018.41
2018-07-08T01:35:10.806Z,1018.39
2018-07-08T01:36:10.790Z,1018.41
2018-07-08T01:37:10.776Z,1018.40
2018-07-08T01:38:10.767Z,1018.40
2018-07-08T01:39:10.743Z,1018.39
2018-07-08T01:40:10.730Z,1018.40
2018-07-08T01:41:10.714Z,1018.44
2018-07-08T01:42:10.703Z,1018.45
2018-07-08T01:43:10.682Z,1018.42
2018-07-08T01:44:10.671Z,1018.46
2018-07-08T01:45:10.655Z,1018.46
2018-07-08T01:46:10.639Z,1018.45
2018-07-08T01:47:10.624Z,1018.49
2018-07-08T01:48:10.609Z,1018.45
2018-07-08T01:49:10.602Z,1018.49
2018-07-08T01:50:10.577Z,1018.49
2018-07-08T01:51:10.570Z,1018.47
2018-07-08T01:52:10.597Z,1018.46
2018-07-08T01:53:10.532Z,1018.45
2018-07-08T01:54:10.517Z,1018.45
2018-07-08T01:55:10.520Z,1018.45
2018-07-08T01:56:10.484Z,1018.47
2018-07-08T01:57:10.469Z,1018.41
2018-07-08T01:58:10.455Z,1018.42
2018-07-08T01:59:10.440Z,1018.44
2018-07-08T02:00:10.423Z,1018.45
2018-07-08T02:01:10.425Z,1018.43
2018-07-08T02:02:10.392Z,1018.46
2018-07-08T02:03:10.376Z,1018.47
2018-07-08T02:04:10.361Z,1018.46
2018-07-08T02:05:10.349Z,1018.46
2018-07-08T02:06:10.331Z,1018.47
2018-07-08T02:07:10.317Z,1018.50
2018-07-08T02:08:10.302Z,1018.45
2018-07-08T02:09:10.287Z,1018.47
2018-07-08T02:10:10.274Z,1018.47
2018-07-08T02:11:10.254Z,1018.46
2018-07-08T02:12:10.238Z,1018.49
2018-07-08T02:13:10.234Z,1018.51
2018-07-08T02:14:10.208Z,1018.47
2018-07-08T02:15:10.192Z,1018.48
2018-07-08T02:16:10.177Z,1018.49
2018-07-08T02:17:10.161Z,1018.47
2018-07-08T02:18:10.146Z,1018.49
2018-07-08T02:19:10.132Z,1018.47
2018-07-08T02:20:10.117Z,1018.47
2018-07-08T02:21:10.101Z,1018.42
2018-07-08T02:22:10.091Z,1018.46
2018-07-08T02:23:10.068Z,1018.49
2018-07-08T02:24:10.057Z,1018.47
2018-07-08T02:25:10.037Z,1018.49
2018-07-08T02:26:10.032Z,1018.49
2018-07-08T02:27:10.017Z,1018.48
2018-07-08T02:28:09.992Z,1018.46
2018-07-08T02:29:09.975Z,1018.46
2018-07-08T02:30:09.960Z,1018.46
2018-07-08T02:31:09.944Z,1018.48
2018-07-08T02:32:09.928Z,1018.46
2018-07-08T02:33:09.914Z,1018.45
2018-07-08T02:34:09.905Z,1018.41
2018-07-08T02:35:09.883Z,1018.45
2018-07-08T02:36:09.867Z,1018.42
2018-07-08T02:37:09.853Z,1018.41
2018-07-08T02:38:09.843Z,1018.49
2018-07-08T02:39:09.819Z,1018.48
2018-07-08T02:40:09.805Z,1018.47
2018-07-08T02:41:09.789Z,1018.46
2018-07-08T02:42:09.773Z,1018.46
2018-07-08T02:43:09.758Z,1018.47
2018-07-08T02:44:09.741Z,1018.49
2018-07-08T02:45:09.740Z,1018.53
2018-07-08T02:46:09.713Z,1018.50
2018-07-08T02:47:09.694Z,1018.52
2018-07-08T02:48:09.678Z,1018.51
2018-07-08T02:49:09.667Z,1018.53
2018-07-08T02:50:09.656Z,1018.49
2018-07-08T02:51:09.632Z,1018.49
2018-07-08T02:52:09.617Z,1018.54
2018-07-08T02:53:09.609Z,1018.47
2018-07-08T02:54:09.587Z,1018.50
2018-07-08T02:55:09.574Z,1018.53
2018-07-08T02:56:09.557Z,1018.52
2018-07-08T02:57:09.540Z,1018.51
2018-07-08T02:58:09.524Z,1018.53
2018-07-08T02:59:09.507Z,1018.50
2018-07-08T03:00:09.493Z,1018.54
2018-07-08T03:01:09.476Z,1018.57
2018-07-08T03:02:09.462Z,1018.62
2018-07-08T03:03:09.445Z,1018.62
2018-07-08T03:04:09.430Z,1018.64
2018-07-08T03:05:09.421Z,1018.61
2018-07-08T03:06:09.403Z,1018.64
2018-07-08T03:07:09.437Z,1018.64
2018-07-08T03:08:09.371Z,1018.67
2018-07-08T03:09:09.352Z,1018.69
2018-07-08T03:10:09.335Z,1018.71
2018-07-08T03:11:09.318Z,1018.71
2018-07-08T03:12:09.312Z,1018.69
2018-07-08T03:13:09.296Z,1018.69
2018-07-08T03:14:09.281Z,1018.67
2018-07-08T03:15:09.258Z,1018.69
2018-07-08T03:16:09.250Z,1018.75
2018-07-08T03:17:09.228Z,1018.66
2018-07-08T03:18:09.209Z,1018.71
2018-07-08T03:19:09.194Z,1018.70
2018-07-08T03:20:09.176Z,1018.68
2018-07-08T03:21:09.162Z,1018.67
2018-07-08T03:22:09.146Z,1018.72
2018-07-08T03:23:09.130Z,1018.70
2018-07-08T03:24:09.120Z,1018.72
2018-07-08T03:25:09.098Z,1018.74
2018-07-08T03:26:09.182Z,1018.75
2018-07-08T03:27:09.067Z,1018.74
2018-07-08T03:28:09.052Z,1018.75
2018-07-08T03:29:09.036Z,1018.80
2018-07-08T03:30:09.020Z,1018.77
2018-07-08T03:31:09.009Z,1018.78
2018-07-08T03:32:09.001Z,1018.77
2018-07-08T03:33:08.972Z,1018.76
2018-07-08T03:34:08.957Z,1018.76
2018-07-08T03:35:08.942Z,1018.81
2018-07-08T03:36:08.927Z,1018.77
2018-07-08T03:37:08.909Z,1018.76
2018-07-08T03:38:08.896Z,1018.76
2018-07-08T03:39:08.880Z,1018.77
2018-07-08T03:40:08.861Z,1018.80
2018-07-08T03:41:08.846Z,1018.78
2018-07-08T03:42:08.830Z,1018.80
2018-07-08T03:43:08.814Z,1018.80
2018-07-08T03:44:08.804Z,1018.79
2018-07-08T03:45:08.783Z,1018.80
2018-07-08T03:46:08.768Z,1018.81
2018-07-08T03:47:08.750Z,1018.81
2018-07-08T03:48:08.736Z,1018.86
2018-07-08T03:49:08.720Z,1018.85
2018-07-08T03:50:08.705Z,1018.83
2018-07-08T03:51:08.687Z,1018.79
2018-07-08T03:52:08.677Z,1018.79
2018-07-08T03:53:08.659Z,1018.80
2018-07-08T03:54:08.642Z,1018.77
2018-07-08T03:55:08.624Z,1018.80
2018-07-08T03:56:08.612Z,1018.78
2018-07-08T03:57:08.592Z,1018.80
2018-07-08T03:58:08.578Z,1018.84
2018-07-08T03:59:08.560Z,1018.84
2018-07-08T04:00:08.546Z,1018.83
2018-07-08T04:01:08.535Z,1018.82
2018-07-08T04:02:08.517Z,1018.82
2018-07-08T04:03:08.498Z,1018.83
2018-07-08T04:04:08.487Z,1018.86
2018-07-08T04:05:08.475Z,1018.89
2018-07-08T04:06:08.453Z,1018.84
2018-07-08T04:07:08.436Z,1018.84
2018-07-08T04:08:08.427Z,1018.85
2018-07-08T04:09:08.406Z,1018.84
2018-07-08T04:10:08.393Z,1018.85
2018-07-08T04:11:08.372Z,1018.84
2018-07-08T04:12:08.407Z,1018.82
2018-07-08T04:13:08.343Z,1018.86
2018-07-08T04:14:08.327Z,1018.81
2018-07-08T04:15:08.318Z,1018.83
2018-07-08T04:16:08.300Z,1018.84
2018-07-08T04:17:08.282Z,1018.83
2018-07-08T04:18:08.265Z,1018.83
2018-07-08T04:19:08.248Z,1018.87
2018-07-08T04:20:08.235Z,1018.85
2018-07-08T04:21:08.217Z,1018.83
2018-07-08T04:22:08.203Z,1018.87
2018-07-08T04:23:08.183Z,1018.85
2018-07-08T04:24:08.171Z,1018.84
2018-07-08T04:25:08.158Z,1018.86
2018-07-08T04:26:08.147Z,1018.89
2018-07-08T04:27:08.123Z,1018.86
2018-07-08T04:28:08.107Z,1018.82
2018-07-08T04:29:08.094Z,1018.85
2018-07-08T04:30:08.077Z,1018.85
2018-07-08T04:31:08.059Z,1018.88
2018-07-08T04:32:08.062Z,1018.88
2018-07-08T04:33:08.027Z,1018.84
2018-07-08T04:34:08.013Z,1018.86
2018-07-08T04:35:07.997Z,1018.89
2018-07-08T04:36:07.980Z,1018.85
2018-07-08T04:37:07.965Z,1018.87
2018-07-08T04:38:07.959Z,1018.94
2018-07-08T04:39:07.934Z,1018.94
2018-07-08T04:40:07.920Z,1018.93
2018-07-08T04:41:07.902Z,1018.96
2018-07-08T04:42:07.887Z,1018.95
2018-07-08T04:43:07.872Z,1018.97
2018-07-08T04:44:07.858Z,1018.99
2018-07-08T04:45:07.841Z,1018.98
2018-07-08T04:46:07.827Z,1019.01
2018-07-08T04:47:07.817Z,1019.02
2018-07-08T04:48:07.793Z,1019.05
2018-07-08T04:49:07.807Z,1019.03
2018-07-08T04:50:07.763Z,1019.02
2018-07-08T04:51:07.745Z,1019.05
2018-07-08T04:52:07.733Z,1019.02
2018-07-08T04:53:07.717Z,1019.03
2018-07-08T04:54:07.702Z,1019.02
2018-07-08T04:55:07.684Z,1019.04
2018-07-08T04:56:07.670Z,1019.00
2018-07-08T04:57:07.654Z,1019.01
2018-07-08T04:58:07.639Z,1019.04
2018-07-08T04:59:07.625Z,1019.03
2018-07-08T05:00:07.609Z,1019.01
2018-07-08T05:01:07.643Z,1019.02
2018-07-08T05:02:07.577Z,1019.05
2018-07-08T05:03:07.561Z,1019.07
2018-07-08T05:04:07.545Z,1019.06
2018-07-08T05:05:07.531Z,1019.09
2018-07-08T05:06:07.521Z,1019.09
2018-07-08T05:07:07.500Z,1019.10
2018-07-08T05:08:07.484Z,1019.13
2018-07-08T05:09:07.469Z,1019.09
2018-07-08T05:10:07.455Z,1019.10
2018-07-08T05:11:07.438Z,1019.08
2018-07-08T05:12:07.425Z,1019.13
2018-07-08T05:13:07.415Z,1019.13
2018-07-08T05:14:07.391Z,1019.13
2018-07-08T05:15:07.377Z,1019.14
2018-07-08T05:16:07.360Z,1019.17
2018-07-08T05:17:07.346Z,1019.17
2018-07-08T05:18:07.330Z,1019.20
2018-07-08T05:19:07.317Z,1019.18
2018-07-08T05:20:07.302Z,1019.20
2018-07-08T05:21:07.285Z,1019.21
2018-07-08T05:22:07.269Z,1019.23
2018-07-08T05:23:07.255Z,1019.27
2018-07-08T05:24:07.238Z,1019.23
2018-07-08T05:25:07.223Z,1019.24
2018-07-08T05:26:07.209Z,1019.29
2018-07-08T05:27:07.193Z,1019.31
2018-07-08T05:28:07.177Z,1019.28
2018-07-08T05:29:07.162Z,1019.30
2018-07-08T05:30:07.149Z,1019.31
2018-07-08T05:31:07.132Z,1019.32
2018-07-08T05:32:07.117Z,1019.30
2018-07-08T05:33:07.102Z,1019.31
2018-07-08T05:34:07.088Z,1019.32
2018-07-08T05:35:07.080Z,1019.34
2018-07-08T05:36:07.056Z,1019.37
2018-07-08T05:37:07.043Z,1019.37
2018-07-08T05:38:07.034Z,1019.42
2018-07-08T05:39:07.011Z,1019.39
2018-07-08T05:40:06.994Z,1019.41
2018-07-08T05:41:06.985Z,1019.38
2018-07-08T05:42:06.966Z,1019.36
2018-07-08T05:43:06.951Z,1019.40
2018-07-08T05:44:06.936Z,1019.40
2018-07-08T05:45:06.922Z,1019.59
2018-07-08T05:46:06.906Z,1020.06
2018-07-08T05:47:06.889Z,1020.35
2018-07-08T05:48:06.876Z,1020.34
2018-07-08T05:49:06.861Z,1020.33
2018-07-08T05:50:06.869Z,1020.39
2018-07-08T05:51:06.834Z,1020.46
2018-07-08T05:52:06.825Z,1020.49
2018-07-08T05:53:06.805Z,1020.49
2018-07-08T05:54:06.792Z,1020.46
2018-07-08T05:55:06.778Z,1020.49
2018-07-08T05:56:06.767Z,1020.52
2018-07-08T05:57:06.755Z,1020.50
2018-07-08T05:58:06.744Z,1020.52
2018-07-08T05:59:06.732Z,1020.49
2018-07-08T06:00:06.720Z,1020.41
2018-07-08T06:01:06.709Z,1020.37
2018-07-08T06:02:06.709Z,1020.39
2018-07-08T06:03:06.690Z,1020.36
2018-07-08T06:04:06.683Z,1020.35
2018-07-08T06:05:06.670Z,1020.37
2018-07-08T06:06:06.664Z,1020.36
2018-07-08T06:07:06.650Z,1020.38
2018-07-08T06:08:06.653Z,1020.34
2018-07-08T06:09:06.636Z,1020.32
2018-07-08T06:10:06.625Z,1020.33
2018-07-08T06:11:06.615Z,1020.30
2018-07-08T06:12:06.621Z,1020.24
2018-07-08T06:13:06.602Z,1020.24
2018-07-08T06:14:06.596Z,1020.23
2018-07-08T06:15:06.590Z,1020.24
2018-07-08T06:16:06.582Z,1020.21
2018-07-08T06:17:06.578Z,1020.25
2018-07-08T06:18:06.576Z,1020.21
2018-07-08T06:19:06.562Z,1020.18
2018-07-08T06:20:06.557Z,1020.21
2018-07-08T06:21:06.552Z,1020.18
2018-07-08T06:22:06.546Z,1020.17
2018-07-08T06:23:06.543Z,1020.18
2018-07-08T06:24:06.546Z,1020.17
2018-07-08T06:25:06.533Z,1020.17
2018-07-08T06:26:06.537Z,1020.15
2018-07-08T06:27:06.532Z,1020.17
2018-07-08T06:28:06.528Z,1020.15
2018-07-08T06:29:06.520Z,1020.08
2018-07-08T06:30:06.513Z,1020.16
2018-07-08T06:31:06.513Z,1020.12
2018-07-08T06:32:06.506Z,1020.12
2018-07-08T06:33:06.504Z,1020.14
2018-07-08T06:34:06.516Z,1020.06
2018-07-08T06:35:06.496Z,1020.12
2018-07-08T06:36:06.496Z,1020.05
2018-07-08T06:37:06.493Z,1020.05
2018-07-08T06:38:06.492Z,1020.08
2018-07-08T06:39:06.533Z,1020.03
2018-07-08T06:40:06.484Z,1020.02
2018-07-08T06:41:06.482Z,1020.05
2018-07-08T06:42:06.482Z,1019.65
2018-07-08T06:43:06.479Z,1019.79
2018-07-08T06:44:06.526Z,1020.01
2018-07-08T06:45:06.475Z,1020.05
2018-07-08T06:46:06.480Z,1020.03
2018-07-08T06:47:06.483Z,1019.96
2018-07-08T06:48:06.471Z,1020.02
2018-07-08T06:49:06.468Z,1019.94
2018-07-08T06:50:06.467Z,1019.96
2018-07-08T06:51:06.466Z,1019.98
2018-07-08T06:52:06.486Z,1019.70
2018-07-08T06:53:06.467Z,1019.79
2018-07-08T06:54:06.463Z,1019.96
2018-07-08T06:55:06.462Z,1019.99
2018-07-08T06:56:06.461Z,1020.01
2018-07-08T06:57:06.510Z,1019.98
2018-07-08T06:58:06.459Z,1019.99
2018-07-08T06:59:06.457Z,1019.96
2018-07-08T07:00:06.457Z,1019.95
2018-07-08T07:01:06.456Z,1019.99
2018-07-08T07:02:06.457Z,1020.03
2018-07-08T07:03:06.465Z,1020.02
2018-07-08T07:04:06.455Z,1020.01
2018-07-08T07:05:06.456Z,1019.98
2018-07-08T07:06:06.456Z,1020.06
2018-07-08T07:07:06.463Z,1020.06
2018-07-08T07:08:06.458Z,1019.81
2018-07-08T07:09:06.457Z,1019.93
2018-07-08T07:10:06.458Z,1020.05
2018-07-08T07:11:06.457Z,1019.90
2018-07-08T07:12:06.458Z,1020.07
2018-07-08T07:13:06.461Z,1020.01
2018-07-08T07:14:06.461Z,1020.04
2018-07-08T07:15:06.468Z,1019.65
2018-07-08T07:16:06.469Z,1019.80
2018-07-08T07:17:06.469Z,1020.04
2018-07-08T07:18:06.463Z,1020.06
2018-07-08T07:19:06.463Z,1020.03
2018-07-08T07:20:06.466Z,1020.04
2018-07-08T07:21:06.463Z,1020.05
2018-07-08T07:22:06.471Z,1020.00
2018-07-08T07:23:06.488Z,1020.00
2018-07-08T07:24:06.466Z,1020.03
2018-07-08T07:25:06.472Z,1019.99
2018-07-08T07:26:06.469Z,1019.64
2018-07-08T07:27:06.470Z,1019.67
2018-07-08T07:28:06.472Z,1019.76
2018-07-08T07:29:06.503Z,1019.61
2018-07-08T07:30:06.493Z,1019.79
2018-07-08T07:31:06.472Z,1019.77
2018-07-08T07:32:06.474Z,1019.72
2018-07-08T07:33:06.482Z,1019.91
2018-07-08T07:34:06.477Z,1019.85
2018-07-08T07:35:06.474Z,1019.90
2018-07-08T07:36:06.473Z,1019.83
2018-07-08T07:37:06.498Z,1019.91
2018-07-08T07:38:06.476Z,1019.63
2018-07-08T07:39:06.483Z,1019.62
2018-07-08T07:40:06.479Z,1019.55
2018-07-08T07:41:06.485Z,1019.50
2018-07-08T07:42:06.482Z,1019.54
2018-07-08T07:43:06.475Z,1019.48
2018-07-08T07:44:06.475Z,1019.51
2018-07-08T07:45:06.476Z,1019.51
2018-07-08T07:46:06.479Z,1019.47
2018-07-08T07:47:06.473Z,1019.48
2018-07-08T07:48:06.472Z,1019.41
2018-07-08T07:49:06.468Z,1019.39
2018-07-08T07:50:06.466Z,1019.38
2018-07-08T07:51:06.545Z,1019.40
2018-07-08T07:52:06.469Z,1019.38
2018-07-08T07:53:06.457Z,1019.36
2018-07-08T07:54:06.454Z,1019.36
2018-07-08T07:55:06.452Z,1019.36
2018-07-08T07:56:06.446Z,1019.36
2018-07-08T07:57:06.441Z,1019.29
2018-07-08T07:58:06.447Z,1019.34
2018-07-08T07:59:06.513Z,1019.33
2018-07-08T08:00:06.439Z,1019.37
2018-07-08T08:01:06.424Z,1019.33
2018-07-08T08:02:06.423Z,1019.36
2018-07-08T08:03:06.415Z,1019.41
2018-07-08T08:04:06.410Z,1019.42
2018-07-08T08:05:06.410Z,1019.40
2018-07-08T08:06:06.400Z,1019.42
2018-07-08T08:07:06.389Z,1019.44
2018-07-08T08:08:06.386Z,1019.48
2018-07-08T08:09:06.380Z,1019.44
2018-07-08T08:10:06.382Z,1019.37
2018-07-08T08:11:06.375Z,1019.41
2018-07-08T08:12:06.361Z,1019.41
2018-07-08T08:13:06.394Z,1019.38
2018-07-08T08:14:06.347Z,1019.39
2018-07-08T08:15:06.341Z,1019.42
2018-07-08T08:16:06.340Z,1019.46
2018-07-08T08:17:06.326Z,1019.48
2018-07-08T08:18:06.321Z,1019.48
2018-07-08T08:19:06.314Z,1019.41
2018-07-08T08:20:06.307Z,1019.47
2018-07-08T08:21:06.378Z,1019.43
2018-07-08T08:22:06.295Z,1019.44
2018-07-08T08:23:06.286Z,1019.44
2018-07-08T08:24:06.294Z,1019.42
2018-07-08T08:25:06.272Z,1019.40
2018-07-08T08:26:06.265Z,1019.42
2018-07-08T08:27:06.257Z,1019.40
2018-07-08T08:28:06.253Z,1019.39
2018-07-08T08:29:06.243Z,1019.41
2018-07-08T08:30:06.236Z,1019.37
2018-07-08T08:31:06.235Z,1019.42
2018-07-08T08:32:06.220Z,1019.37
2018-07-08T08:33:06.216Z,1019.38
2018-07-08T08:34:06.206Z,1019.44
2018-07-08T08:35:06.206Z,1019.43
2018-07-08T08:36:06.191Z,1019.44
2018-07-08T08:37:06.181Z,1019.42
2018-07-08T08:38:06.222Z,1019.40
2018-07-08T08:39:06.164Z,1019.39
2018-07-08T08:40:06.155Z,1019.36
2018-07-08T08:41:06.147Z,1019.34
2018-07-08T08:42:06.139Z,1019.32
2018-07-08T08:43:06.133Z,1019.36
2018-07-08T08:44:06.123Z,1019.34
2018-07-08T08:45:06.115Z,1019.32
2018-07-08T08:46:06.105Z,1019.28
2018-07-08T08:47:06.107Z,1019.29
2018-07-08T08:48:06.098Z,1019.33
2018-07-08T08:49:06.078Z,1019.36
2018-07-08T08:50:06.071Z,1019.36
2018-07-08T08:51:06.062Z,1019.36
2018-07-08T08:52:06.051Z,1019.31
2018-07-08T08:53:06.050Z,1019.33
2018-07-08T08:54:06.041Z,1019.31
2018-07-08T08:55:06.033Z,1019.32
2018-07-08T08:56:06.016Z,1019.29
2018-07-08T08:57:06.007Z,1019.40
2018-07-08T08:58:06.005Z,1019.29
2018-07-08T08:59:05.990Z,1019.34
2018-07-08T09:00:06.005Z,1019.39
2018-07-08T09:01:05.974Z,1019.53
2018-07-08T09:02:05.965Z,1019.33
2018-07-08T09:03:05.955Z,1019.35
2018-07-08T09:04:05.953Z,1019.46
2018-07-08T09:05:05.938Z,1019.41
2018-07-08T09:06:05.931Z,1019.36
2018-07-08T09:07:05.922Z,1019.39
2018-07-08T09:08:05.916Z,1019.41
2018-07-08T09:09:05.903Z,1019.42
2018-07-08T09:10:05.896Z,1019.60
2018-07-08T09:11:05.887Z,1019.41
2018-07-08T09:12:05.879Z,1019.37
2018-07-08T09:13:05.881Z,1019.42
2018-07-08T09:14:05.864Z,1019.69
2018-07-08T09:15:05.858Z,1019.74
2018-07-08T09:16:05.855Z,1019.75
2018-07-08T09:17:05.846Z,1019.63
2018-07-08T09:18:05.839Z,1019.53
2018-07-08T09:19:05.830Z,1019.62
2018-07-08T09:20:05.834Z,1019.49
2018-07-08T09:21:05.817Z,1019.80
2018-07-08T09:22:05.813Z,1019.78
2018-07-08T09:23:05.808Z,1019.67
2018-07-08T09:24:05.869Z,1019.61
2018-07-08T09:25:05.800Z,1019.50
2018-07-08T09:26:05.796Z,1019.55
2018-07-08T09:27:05.792Z,1019.46
2018-07-08T09:28:05.785Z,1019.53
2018-07-08T09:29:05.786Z,1019.51
2018-07-08T09:30:05.773Z,1019.49
2018-07-08T09:31:05.771Z,1019.50
2018-07-08T09:32:05.768Z,1019.45
2018-07-08T09:33:05.770Z,1019.44
2018-07-08T09:34:05.757Z,1019.50
2018-07-08T09:35:05.765Z,1019.52
2018-07-08T09:36:05.750Z,1019.69
2018-07-08T09:37:05.747Z,1019.73
2018-07-08T09:38:05.744Z,1019.86
2018-07-08T09:39:05.821Z,1019.51
2018-07-08T09:40:05.734Z,1019.54
2018-07-08T09:41:05.734Z,1019.49
2018-07-08T09:42:05.727Z,1019.69
2018-07-08T09:43:05.730Z,1019.74
2018-07-08T09:44:05.723Z,1019.78
2018-07-08T09:45:05.728Z,1019.77
2018-07-08T09:46:05.724Z,1019.51
2018-07-08T09:47:05.725Z,1019.47
2018-07-08T09:48:05.717Z,1019.47
2018-07-08T09:49:05.711Z,1019.55
2018-07-08T09:50:05.717Z,1019.44
2018-07-08T09:51:05.706Z,1019.45
2018-07-08T09:52:05.703Z,1019.52
2018-07-08T09:53:05.707Z,1019.53
2018-07-08T09:54:05.698Z,1019.73
2018-07-08T09:55:05.701Z,1019.54
2018-07-08T09:56:05.692Z,1019.56
2018-07-08T09:57:05.697Z,1019.68
2018-07-08T09:58:05.709Z,1019.57
2018-07-08T09:59:05.691Z,1019.80
2018-07-08T10:00:05.677Z,1019.56
2018-07-08T10:01:05.673Z,1019.69
2018-07-08T10:02:05.674Z,1019.61
2018-07-08T10:03:05.671Z,1019.57
2018-07-08T10:04:05.663Z,1019.60
2018-07-08T10:05:05.657Z,1019.73
2018-07-08T10:06:05.662Z,1019.54
2018-07-08T10:07:05.652Z,1019.51
2018-07-08T10:08:05.657Z,1019.63
2018-07-08T10:09:05.645Z,1019.68
2018-07-08T10:10:05.644Z,1019.62
2018-07-08T10:11:05.648Z,1019.52
2018-07-08T10:12:05.648Z,1019.76
2018-07-08T10:13:05.641Z,1019.66
2018-07-08T10:14:05.716Z,1019.60
2018-07-08T10:15:05.640Z,1019.63
2018-07-08T10:16:05.629Z,1019.73
2018-07-08T10:17:05.636Z,1019.78
2018-07-08T10:18:05.625Z,1019.72
2018-07-08T10:19:05.638Z,1019.70
2018-07-08T10:20:05.642Z,1019.70
2018-07-08T10:21:05.624Z,1019.60
2018-07-08T10:22:05.623Z,1019.64
2018-07-08T10:23:05.623Z,1019.61
2018-07-08T10:24:05.639Z,1019.59
2018-07-08T10:25:05.627Z,1019.57
2018-07-08T10:26:05.645Z,1019.52
2018-07-08T10:27:05.633Z,1019.58
2018-07-08T10:28:05.637Z,1019.54
2018-07-08T10:29:05.636Z,1019.55
2018-07-08T10:30:05.656Z,1019.45
2018-07-08T10:31:05.641Z,1019.48
2018-07-08T10:32:05.645Z,1019.43
2018-07-08T10:33:05.647Z,1019.43
2018-07-08T10:34:05.665Z,1019.37
2018-07-08T10:35:05.671Z,1019.37
2018-07-08T10:36:05.664Z,1019.29
2018-07-08T10:37:05.676Z,1019.21
2018-07-08T10:38:05.710Z,1019.28
2018-07-08T10:39:05.689Z,1019.28
2018-07-08T10:40:05.685Z,1019.24
2018-07-08T10:41:05.690Z,1019.15
2018-07-08T10:42:05.695Z,1019.17
2018-07-08T10:43:05.711Z,1019.13
2018-07-08T10:44:05.706Z,1019.13
2018-07-08T10:45:05.712Z,1019.07
2018-07-08T10:46:05.717Z,1019.17
2018-07-08T10:47:05.730Z,1019.11
2018-07-08T10:48:05.732Z,1019.04
2018-07-08T10:49:05.748Z,1019.02
2018-07-08T10:50:05.784Z,1019.03
2018-07-08T10:51:05.752Z,1018.99
2018-07-08T10:52:05.753Z,1019.04
2018-07-08T10:53:05.760Z,1019.03
2018-07-08T10:54:05.767Z,1018.99
2018-07-08T10:55:05.776Z,1018.91
2018-07-08T10:56:05.780Z,1018.91
2018-07-08T10:57:05.802Z,1018.83
2018-07-08T10:58:05.792Z,1018.81
2018-07-08T10:59:05.806Z,1018.87
2018-07-08T11:00:05.809Z,1018.92
2018-07-08T11:01:05.813Z,1018.88
2018-07-08T11:02:05.820Z,1018.89
2018-07-08T11:03:05.823Z,1018.87
2018-07-08T11:04:05.834Z,1018.81
2018-07-08T11:05:05.846Z,1018.82
2018-07-08T11:06:05.849Z,1018.83
2018-07-08T11:07:05.859Z,1018.82
2018-07-08T11:08:05.873Z,1018.85
2018-07-08T11:09:05.874Z,1018.79
2018-07-08T11:10:05.874Z,1018.77
2018-07-08T11:11:05.888Z,1018.82
2018-07-08T11:12:05.904Z,1018.95
2018-07-08T11:13:05.921Z,1018.94
2018-07-08T11:14:05.913Z,1018.92
2018-07-08T11:15:05.915Z,1018.94
2018-07-08T11:16:06.020Z,1018.94
2018-07-08T11:17:05.922Z,1019.13
2018-07-08T11:18:05.929Z,1019.14
2018-07-08T11:19:05.934Z,1019.07
2018-07-08T11:20:05.978Z,1019.12
2018-07-08T11:21:05.949Z,1019.11
2018-07-08T11:22:05.963Z,1019.20
2018-07-08T11:23:05.958Z,1019.20
2018-07-08T11:24:05.971Z,1019.17
2018-07-08T11:25:05.988Z,1019.26
2018-07-08T11:26:05.989Z,1019.25
2018-07-08T11:27:06.003Z,1019.30
2018-07-08T11:28:05.998Z,1019.35
2018-07-08T11:29:06.026Z,1019.45
2018-07-08T11:30:06.018Z,1019.50
2018-07-08T11:31:06.024Z,1019.50
2018-07-08T11:32:06.029Z,1019.56
2018-07-08T11:33:06.041Z,1019.55
2018-07-08T11:34:06.045Z,1019.54
2018-07-08T11:35:06.042Z,1019.64
2018-07-08T11:36:06.049Z,1019.62
2018-07-08T11:37:06.065Z,1019.63
2018-07-08T11:38:06.102Z,1019.64
2018-07-08T11:39:06.072Z,1019.77
2018-07-08T11:40:06.082Z,1019.88
2018-07-08T11:41:06.086Z,1019.93
2018-07-08T11:42:06.089Z,1020.05
2018-07-08T11:43:06.102Z,1020.24
2018-07-08T11:44:06.102Z,1020.16
2018-07-08T11:45:06.110Z,1020.34
2018-07-08T11:46:06.123Z,1020.31
2018-07-08T11:47:06.119Z,1019.99
2018-07-08T11:48:06.126Z,1019.96
2018-07-08T11:49:06.132Z,1019.92
2018-07-08T11:50:06.153Z,1019.30
2018-07-08T11:51:06.139Z,1019.00
2018-07-08T11:52:06.145Z,1018.97
2018-07-08T11:53:06.165Z,1018.93
2018-07-08T11:54:06.158Z,1018.95
2018-07-08T11:55:06.163Z,1018.98
2018-07-08T11:56:06.161Z,1018.98
2018-07-08T11:57:06.172Z,1018.93
2018-07-08T11:58:06.173Z,1018.94
2018-07-08T11:59:06.177Z,1018.92
2018-07-08T12:00:06.167Z,1018.86
2018-07-08T12:01:06.168Z,1018.82
2018-07-08T12:02:06.183Z,1018.82
2018-07-08T12:03:06.168Z,1018.79
2018-07-08T12:04:06.167Z,1018.86
2018-07-08T12:05:06.205Z,1018.84